sensor_id;sensor_type;location;lat;lon;timestamp;temperature;humidity
68485;DHT22;55472;50.060;21.960;2022-10-30T00:00:39;11.20;90.40
68485;DHT22;55472;50.060;21.960;2022-10-30T00:03:25;11.20;90.50
68485;DHT22;55472;50.060;21.960;2022-10-30T00:05:51;11.10;90.50
68485;DHT22;55472;50.060;21.960;2022-10-30T00:08:19;11.20;90.50
68485;DHT22;55472;50.060;21.960;2022-10-30T00:10:47;11.20;90.50
68485;DHT22;55472;50.060;21.960;2022-10-30T00:13:15;11.10;90.50
68485;DHT22;55472;50.060;21.960;2022-10-30T00:15:52;11.10;90.70
68485;DHT22;55472;50.060;21.960;2022-10-30T00:18:19;11.10;90.80
68485;DHT22;55472;50.060;21.960;2022-10-30T00:20:45;11.10;90.90
68485;DHT22;55472;50.060;21.960;2022-10-30T00:23:11;11.10;91.10
68485;DHT22;55472;50.060;21.960;2022-10-30T00:25:37;11.10;91.00
68485;DHT22;55472;50.060;21.960;2022-10-30T00:28:04;11.10;91.00
68485;DHT22;55472;50.060;21.960;2022-10-30T00:30:31;11.10;91.00
68485;DHT22;55472;50.060;21.960;2022-10-30T00:32:57;11.10;91.00
68485;DHT22;55472;50.060;21.960;2022-10-30T00:35:23;11.10;91.00
68485;DHT22;55472;50.060;21.960;2022-10-30T00:37:49;11.10;91.10
68485;DHT22;55472;50.060;21.960;2022-10-30T00:40:16;11.10;91.00
68485;DHT22;55472;50.060;21.960;2022-10-30T00:42:43;11.10;91.10
68485;DHT22;55472;50.060;21.960;2022-10-30T00:45:14;11.10;91.10
68485;DHT22;55472;50.060;21.960;2022-10-30T00:47:58;11.10;91.30
68485;DHT22;55472;50.060;21.960;2022-10-30T00:50:29;11.10;91.20
68485;DHT22;55472;50.060;21.960;2022-10-30T00:53:04;11.10;91.20
68485;DHT22;55472;50.060;21.960;2022-10-30T00:55:36;11.20;91.10
68485;DHT22;55472;50.060;21.960;2022-10-30T00:58:07;11.20;91.00
68485;DHT22;55472;50.060;21.960;2022-10-30T01:00:35;11.20;91.10
68485;DHT22;55472;50.060;21.960;2022-10-30T01:03:04;11.20;90.90
68485;DHT22;55472;50.060;21.960;2022-10-30T01:05:31;11.30;90.90
68485;DHT22;55472;50.060;21.960;2022-10-30T01:07:57;11.30;90.80
68485;DHT22;55472;50.060;21.960;2022-10-30T01:10:24;11.30;90.70
68485;DHT22;55472;50.060;21.960;2022-10-30T01:12:51;11.30;90.60
68485;DHT22;55472;50.060;21.960;2022-10-30T01:15:23;11.30;90.70
68485;DHT22;55472;50.060;21.960;2022-10-30T01:24:36;11.40;90.70
68485;DHT22;55472;50.060;21.960;2022-10-30T01:27:44;11.40;90.70
68485;DHT22;55472;50.060;21.960;2022-10-30T01:30:50;11.40;90.80
68485;DHT22;55472;50.060;21.960;2022-10-30T01:33:29;11.50;90.80
68485;DHT22;55472;50.060;21.960;2022-10-30T01:36:32;11.40;90.90
68485;DHT22;55472;50.060;21.960;2022-10-30T01:39:17;11.40;91.00
68485;DHT22;55472;50.060;21.960;2022-10-30T01:41:46;11.40;91.10
68485;DHT22;55472;50.060;21.960;2022-10-30T01:44:25;11.50;91.20
68485;DHT22;55472;50.060;21.960;2022-10-30T01:47:32;11.50;91.20
68485;DHT22;55472;50.060;21.960;2022-10-30T01:50:20;11.50;91.20
68485;DHT22;55472;50.060;21.960;2022-10-30T01:52:56;11.50;91.00
68485;DHT22;55472;50.060;21.960;2022-10-30T01:55:41;11.50;90.90
68485;DHT22;55472;50.060;21.960;2022-10-30T01:58:27;11.50;90.90
68485;DHT22;55472;50.060;21.960;2022-10-30T02:01:02;11.50;91.00
68485;DHT22;55472;50.060;21.960;2022-10-30T02:03:28;11.50;91.00
68485;DHT22;55472;50.060;21.960;2022-10-30T02:05:55;11.50;91.10
68485;DHT22;55472;50.060;21.960;2022-10-30T02:08:21;11.50;91.20
68485;DHT22;55472;50.060;21.960;2022-10-30T02:10:48;11.50;91.40
68485;DHT22;55472;50.060;21.960;2022-10-30T02:13:16;11.50;91.70
68485;DHT22;55472;50.060;21.960;2022-10-30T02:15:42;11.50;92.10
68485;DHT22;55472;50.060;21.960;2022-10-30T02:18:09;11.50;92.30
68485;DHT22;55472;50.060;21.960;2022-10-30T02:20:36;11.50;92.50
68485;DHT22;55472;50.060;21.960;2022-10-30T02:23:02;11.50;92.60
68485;DHT22;55472;50.060;21.960;2022-10-30T02:25:29;11.50;92.50
68485;DHT22;55472;50.060;21.960;2022-10-30T02:27:54;11.50;92.70
68485;DHT22;55472;50.060;21.960;2022-10-30T02:30:20;11.50;92.90
68485;DHT22;55472;50.060;21.960;2022-10-30T02:32:46;11.50;93.20
68485;DHT22;55472;50.060;21.960;2022-10-30T02:35:12;11.50;93.40
68485;DHT22;55472;50.060;21.960;2022-10-30T02:37:38;11.50;93.50
68485;DHT22;55472;50.060;21.960;2022-10-30T02:40:05;11.50;93.50
68485;DHT22;55472;50.060;21.960;2022-10-30T02:42:35;11.50;94.00
68485;DHT22;55472;50.060;21.960;2022-10-30T02:45:01;11.40;94.40
68485;DHT22;55472;50.060;21.960;2022-10-30T02:47:27;11.40;94.70
68485;DHT22;55472;50.060;21.960;2022-10-30T02:49:53;11.40;94.70
68485;DHT22;55472;50.060;21.960;2022-10-30T02:52:19;11.30;95.10
68485;DHT22;55472;50.060;21.960;2022-10-30T02:54:45;11.30;95.30
68485;DHT22;55472;50.060;21.960;2022-10-30T02:57:11;11.30;95.20
68485;DHT22;55472;50.060;21.960;2022-10-30T02:59:37;11.30;95.40
68485;DHT22;55472;50.060;21.960;2022-10-30T03:02:03;11.30;95.30
68485;DHT22;55472;50.060;21.960;2022-10-30T03:04:29;11.30;95.40
68485;DHT22;55472;50.060;21.960;2022-10-30T03:06:55;11.30;95.10
68485;DHT22;55472;50.060;21.960;2022-10-30T03:09:21;11.30;95.20
68485;DHT22;55472;50.060;21.960;2022-10-30T03:11:47;11.30;95.30
68485;DHT22;55472;50.060;21.960;2022-10-30T03:14:13;11.30;95.20
68485;DHT22;55472;50.060;21.960;2022-10-30T03:16:39;11.30;95.20
68485;DHT22;55472;50.060;21.960;2022-10-30T03:19:05;11.30;95.30
68485;DHT22;55472;50.060;21.960;2022-10-30T03:21:31;11.30;95.20
68485;DHT22;55472;50.060;21.960;2022-10-30T03:23:57;11.30;95.40
68485;DHT22;55472;50.060;21.960;2022-10-30T03:26:23;11.30;95.50
68485;DHT22;55472;50.060;21.960;2022-10-30T03:28:49;11.30;95.40
68485;DHT22;55472;50.060;21.960;2022-10-30T03:31:17;11.30;95.40
68485;DHT22;55472;50.060;21.960;2022-10-30T03:33:44;11.30;95.40
68485;DHT22;55472;50.060;21.960;2022-10-30T03:36:12;11.30;95.10
68485;DHT22;55472;50.060;21.960;2022-10-30T03:38:39;11.30;95.20
68485;DHT22;55472;50.060;21.960;2022-10-30T03:41:05;11.30;95.20
68485;DHT22;55472;50.060;21.960;2022-10-30T03:43:31;11.30;95.10
68485;DHT22;55472;50.060;21.960;2022-10-30T03:45:57;11.30;95.00
68485;DHT22;55472;50.060;21.960;2022-10-30T03:48:25;11.30;95.00
68485;DHT22;55472;50.060;21.960;2022-10-30T03:50:54;11.30;95.00
68485;DHT22;55472;50.060;21.960;2022-10-30T03:53:20;11.30;95.10
68485;DHT22;55472;50.060;21.960;2022-10-30T03:55:49;11.30;95.00
68485;DHT22;55472;50.060;21.960;2022-10-30T03:58:15;11.30;94.90
68485;DHT22;55472;50.060;21.960;2022-10-30T04:00:41;11.30;94.90
68485;DHT22;55472;50.060;21.960;2022-10-30T04:03:08;11.30;95.00
68485;DHT22;55472;50.060;21.960;2022-10-30T04:05:36;11.30;95.20
68485;DHT22;55472;50.060;21.960;2022-10-30T04:08:09;11.30;95.20
68485;DHT22;55472;50.060;21.960;2022-10-30T04:10:36;11.30;95.20
68485;DHT22;55472;50.060;21.960;2022-10-30T04:13:07;11.30;95.20
68485;DHT22;55472;50.060;21.960;2022-10-30T04:15:33;11.30;95.10
68485;DHT22;55472;50.060;21.960;2022-10-30T04:17:59;11.30;95.10
68485;DHT22;55472;50.060;21.960;2022-10-30T04:20:26;11.30;95.20
68485;DHT22;55472;50.060;21.960;2022-10-30T04:23:00;11.30;95.00
68485;DHT22;55472;50.060;21.960;2022-10-30T04:25:28;11.30;95.10
68485;DHT22;55472;50.060;21.960;2022-10-30T04:27:54;11.30;95.20
68485;DHT22;55472;50.060;21.960;2022-10-30T04:30:21;11.30;95.10
68485;DHT22;55472;50.060;21.960;2022-10-30T04:32:48;11.30;95.20
68485;DHT22;55472;50.060;21.960;2022-10-30T04:35:15;11.30;95.30
68485;DHT22;55472;50.060;21.960;2022-10-30T04:37:42;11.30;95.10
68485;DHT22;55472;50.060;21.960;2022-10-30T04:40:08;11.30;95.10
68485;DHT22;55472;50.060;21.960;2022-10-30T04:42:34;11.30;95.20
68485;DHT22;55472;50.060;21.960;2022-10-30T04:45:00;11.30;95.40
68485;DHT22;55472;50.060;21.960;2022-10-30T04:47:28;11.30;95.30
68485;DHT22;55472;50.060;21.960;2022-10-30T04:49:55;11.30;95.30
68485;DHT22;55472;50.060;21.960;2022-10-30T04:52:21;11.30;95.10
68485;DHT22;55472;50.060;21.960;2022-10-30T04:54:47;11.40;95.00
68485;DHT22;55472;50.060;21.960;2022-10-30T04:57:13;11.40;95.00
68485;DHT22;55472;50.060;21.960;2022-10-30T04:59:38;11.40;94.90
68485;DHT22;55472;50.060;21.960;2022-10-30T05:02:05;11.30;95.00
68485;DHT22;55472;50.060;21.960;2022-10-30T05:04:30;11.30;94.90
68485;DHT22;55472;50.060;21.960;2022-10-30T05:06:56;11.40;95.20
68485;DHT22;55472;50.060;21.960;2022-10-30T05:09:22;11.30;95.20
68485;DHT22;55472;50.060;21.960;2022-10-30T05:11:48;11.40;95.20
68485;DHT22;55472;50.060;21.960;2022-10-30T05:14:14;11.40;95.10
68485;DHT22;55472;50.060;21.960;2022-10-30T05:16:40;11.40;95.10
68485;DHT22;55472;50.060;21.960;2022-10-30T05:19:06;11.40;94.90
68485;DHT22;55472;50.060;21.960;2022-10-30T05:21:32;11.40;94.80
68485;DHT22;55472;50.060;21.960;2022-10-30T05:23:58;11.40;94.60
68485;DHT22;55472;50.060;21.960;2022-10-30T05:26:24;11.40;94.50
68485;DHT22;55472;50.060;21.960;2022-10-30T05:28:50;11.40;94.60
68485;DHT22;55472;50.060;21.960;2022-10-30T05:31:16;11.40;94.70
68485;DHT22;55472;50.060;21.960;2022-10-30T05:33:42;11.40;94.50
68485;DHT22;55472;50.060;21.960;2022-10-30T05:36:08;11.40;94.40
68485;DHT22;55472;50.060;21.960;2022-10-30T05:38:34;11.50;94.40
68485;DHT22;55472;50.060;21.960;2022-10-30T05:41:00;11.50;94.30
68485;DHT22;55472;50.060;21.960;2022-10-30T05:43:26;11.50;94.50
68485;DHT22;55472;50.060;21.960;2022-10-30T05:45:52;11.50;94.40
68485;DHT22;55472;50.060;21.960;2022-10-30T05:48:18;11.50;94.30
68485;DHT22;55472;50.060;21.960;2022-10-30T05:50:44;11.50;94.30
68485;DHT22;55472;50.060;21.960;2022-10-30T05:53:10;11.50;94.20
68485;DHT22;55472;50.060;21.960;2022-10-30T05:55:36;11.60;94.20
68485;DHT22;55472;50.060;21.960;2022-10-30T05:58:04;11.60;94.00
68485;DHT22;55472;50.060;21.960;2022-10-30T06:00:33;11.50;93.90
68485;DHT22;55472;50.060;21.960;2022-10-30T06:03:04;11.60;93.80
68485;DHT22;55472;50.060;21.960;2022-10-30T06:05:36;11.60;93.70
68485;DHT22;55472;50.060;21.960;2022-10-30T06:08:04;11.60;93.70
68485;DHT22;55472;50.060;21.960;2022-10-30T06:10:31;11.60;93.70
68485;DHT22;55472;50.060;21.960;2022-10-30T06:12:59;11.60;93.90
68485;DHT22;55472;50.060;21.960;2022-10-30T06:15:27;11.60;93.90
68485;DHT22;55472;50.060;21.960;2022-10-30T06:17:54;11.60;93.60
68485;DHT22;55472;50.060;21.960;2022-10-30T06:20:23;11.60;93.80
68485;DHT22;55472;50.060;21.960;2022-10-30T06:23:05;11.60;93.70
68485;DHT22;55472;50.060;21.960;2022-10-30T06:25:34;11.60;93.50
68485;DHT22;55472;50.060;21.960;2022-10-30T06:28:00;11.70;93.60
68485;DHT22;55472;50.060;21.960;2022-10-30T06:30:27;11.70;93.80
68485;DHT22;55472;50.060;21.960;2022-10-30T06:33:00;11.60;94.10
68485;DHT22;55472;50.060;21.960;2022-10-30T06:35:27;11.70;94.40
68485;DHT22;55472;50.060;21.960;2022-10-30T06:37:54;11.70;94.70
68485;DHT22;55472;50.060;21.960;2022-10-30T06:40:24;11.60;94.60
68485;DHT22;55472;50.060;21.960;2022-10-30T06:42:51;11.60;94.80
68485;DHT22;55472;50.060;21.960;2022-10-30T06:45:19;11.70;95.00
68485;DHT22;55472;50.060;21.960;2022-10-30T06:47:46;11.70;95.30
68485;DHT22;55472;50.060;21.960;2022-10-30T06:50:15;11.70;95.30
68485;DHT22;55472;50.060;21.960;2022-10-30T06:52:43;11.70;95.40
68485;DHT22;55472;50.060;21.960;2022-10-30T06:55:09;11.70;95.50
68485;DHT22;55472;50.060;21.960;2022-10-30T06:57:36;11.70;95.70
68485;DHT22;55472;50.060;21.960;2022-10-30T07:00:04;11.70;95.60
68485;DHT22;55472;50.060;21.960;2022-10-30T07:02:31;11.70;95.70
68485;DHT22;55472;50.060;21.960;2022-10-30T07:04:57;11.70;95.60
68485;DHT22;55472;50.060;21.960;2022-10-30T07:07:23;11.70;95.50
68485;DHT22;55472;50.060;21.960;2022-10-30T07:09:49;11.70;95.70
68485;DHT22;55472;50.060;21.960;2022-10-30T07:12:15;11.70;95.70
68485;DHT22;55472;50.060;21.960;2022-10-30T07:14:41;11.70;95.90
68485;DHT22;55472;50.060;21.960;2022-10-30T07:17:07;11.70;96.20
68485;DHT22;55472;50.060;21.960;2022-10-30T07:19:33;11.70;96.40
68485;DHT22;55472;50.060;21.960;2022-10-30T07:22:00;11.70;96.40
68485;DHT22;55472;50.060;21.960;2022-10-30T07:24:26;11.70;96.30
68485;DHT22;55472;50.060;21.960;2022-10-30T07:26:54;11.70;96.70
68485;DHT22;55472;50.060;21.960;2022-10-30T07:29:20;11.70;96.60
68485;DHT22;55472;50.060;21.960;2022-10-30T07:31:47;11.70;96.90
68485;DHT22;55472;50.060;21.960;2022-10-30T07:34:14;11.70;97.10
68485;DHT22;55472;50.060;21.960;2022-10-30T07:36:41;11.70;96.90
68485;DHT22;55472;50.060;21.960;2022-10-30T07:39:07;11.80;97.30
68485;DHT22;55472;50.060;21.960;2022-10-30T07:41:33;11.80;97.60
68485;DHT22;55472;50.060;21.960;2022-10-30T07:43:59;11.90;97.30
68485;DHT22;55472;50.060;21.960;2022-10-30T07:46:25;11.90;97.10
68485;DHT22;55472;50.060;21.960;2022-10-30T07:48:50;12.00;97.00
68485;DHT22;55472;50.060;21.960;2022-10-30T07:51:17;11.90;96.80
68485;DHT22;55472;50.060;21.960;2022-10-30T07:53:42;12.00;97.10
68485;DHT22;55472;50.060;21.960;2022-10-30T07:56:09;12.00;97.20
68485;DHT22;55472;50.060;21.960;2022-10-30T07:58:34;12.00;97.00
68485;DHT22;55472;50.060;21.960;2022-10-30T08:01:02;12.00;96.10
68485;DHT22;55472;50.060;21.960;2022-10-30T08:03:28;11.90;96.30
68485;DHT22;55472;50.060;21.960;2022-10-30T08:05:54;11.90;96.70
68485;DHT22;55472;50.060;21.960;2022-10-30T08:08:20;11.90;97.00
68485;DHT22;55472;50.060;21.960;2022-10-30T08:10:46;12.00;97.30
68485;DHT22;55472;50.060;21.960;2022-10-30T08:13:12;12.00;97.10
68485;DHT22;55472;50.060;21.960;2022-10-30T08:15:41;12.00;97.10
68485;DHT22;55472;50.060;21.960;2022-10-30T08:18:07;12.00;97.10
68485;DHT22;55472;50.060;21.960;2022-10-30T08:20:33;12.00;97.00
68485;DHT22;55472;50.060;21.960;2022-10-30T08:22:59;12.00;97.10
68485;DHT22;55472;50.060;21.960;2022-10-30T08:25:28;12.00;97.10
68485;DHT22;55472;50.060;21.960;2022-10-30T08:28:04;12.00;97.00
68485;DHT22;55472;50.060;21.960;2022-10-30T08:30:33;12.00;97.10
68485;DHT22;55472;50.060;21.960;2022-10-30T08:33:02;12.10;97.20
68485;DHT22;55472;50.060;21.960;2022-10-30T08:35:36;12.10;96.60
68485;DHT22;55472;50.060;21.960;2022-10-30T08:38:02;12.10;96.70
68485;DHT22;55472;50.060;21.960;2022-10-30T08:40:28;12.10;96.70
68485;DHT22;55472;50.060;21.960;2022-10-30T08:42:55;12.10;96.80
68485;DHT22;55472;50.060;21.960;2022-10-30T08:45:23;12.10;97.00
68485;DHT22;55472;50.060;21.960;2022-10-30T08:47:58;12.20;97.00
68485;DHT22;55472;50.060;21.960;2022-10-30T08:50:25;12.20;97.10
68485;DHT22;55472;50.060;21.960;2022-10-30T08:52:52;12.20;97.10
68485;DHT22;55472;50.060;21.960;2022-10-30T08:55:17;12.30;97.30
68485;DHT22;55472;50.060;21.960;2022-10-30T08:57:43;12.30;97.70
68485;DHT22;55472;50.060;21.960;2022-10-30T09:00:10;12.30;97.30
68485;DHT22;55472;50.060;21.960;2022-10-30T09:02:37;12.30;97.20
68485;DHT22;55472;50.060;21.960;2022-10-30T09:05:09;12.30;97.30
68485;DHT22;55472;50.060;21.960;2022-10-30T09:07:35;12.30;97.10
68485;DHT22;55472;50.060;21.960;2022-10-30T09:10:03;12.40;97.10
68485;DHT22;55472;50.060;21.960;2022-10-30T09:12:29;12.40;97.20
68485;DHT22;55472;50.060;21.960;2022-10-30T09:14:55;12.50;97.40
68485;DHT22;55472;50.060;21.960;2022-10-30T09:17:21;12.60;97.40
68485;DHT22;55472;50.060;21.960;2022-10-30T09:19:47;12.60;97.00
68485;DHT22;55472;50.060;21.960;2022-10-30T09:22:13;12.70;96.60
68485;DHT22;55472;50.060;21.960;2022-10-30T09:24:39;12.80;95.60
68485;DHT22;55472;50.060;21.960;2022-10-30T09:27:06;12.80;95.30
68485;DHT22;55472;50.060;21.960;2022-10-30T09:29:32;12.80;95.60
68485;DHT22;55472;50.060;21.960;2022-10-30T09:31:58;13.00;95.80
68485;DHT22;55472;50.060;21.960;2022-10-30T09:34:24;13.10;95.10
68485;DHT22;55472;50.060;21.960;2022-10-30T09:36:52;13.20;93.50
68485;DHT22;55472;50.060;21.960;2022-10-30T09:39:18;13.20;92.70
68485;DHT22;55472;50.060;21.960;2022-10-30T09:42:02;13.20;92.90
68485;DHT22;55472;50.060;21.960;2022-10-30T09:45:25;13.20;93.00
68485;DHT22;55472;50.060;21.960;2022-10-30T09:48:31;13.30;93.30
68485;DHT22;55472;50.060;21.960;2022-10-30T09:51:34;13.40;92.70
68485;DHT22;55472;50.060;21.960;2022-10-30T09:59:43;13.40;92.70
68485;DHT22;55472;50.060;21.960;2022-10-30T10:02:36;13.50;91.80
68485;DHT22;55472;50.060;21.960;2022-10-30T10:05:25;13.50;91.90
68485;DHT22;55472;50.060;21.960;2022-10-30T10:08:03;13.60;91.70
68485;DHT22;55472;50.060;21.960;2022-10-30T10:10:39;13.70;91.60
68485;DHT22;55472;50.060;21.960;2022-10-30T10:13:38;13.80;91.00
68485;DHT22;55472;50.060;21.960;2022-10-30T10:16:16;13.90;90.70
68485;DHT22;55472;50.060;21.960;2022-10-30T10:18:47;13.90;90.20
68485;DHT22;55472;50.060;21.960;2022-10-30T10:21:24;13.90;89.60
68485;DHT22;55472;50.060;21.960;2022-10-30T10:23:54;13.90;90.10
68485;DHT22;55472;50.060;21.960;2022-10-30T10:29:28;14.10;90.10
68485;DHT22;55472;50.060;21.960;2022-10-30T10:38:03;14.50;89.80
68485;DHT22;55472;50.060;21.960;2022-10-30T10:43:27;14.70;88.20
68485;DHT22;55472;50.060;21.960;2022-10-30T10:46:08;14.90;88.10
68485;DHT22;55472;50.060;21.960;2022-10-30T10:51:54;15.10;87.30
68485;DHT22;55472;50.060;21.960;2022-10-30T10:54:42;15.10;87.30
68485;DHT22;55472;50.060;21.960;2022-10-30T10:57:32;15.20;87.60
68485;DHT22;55472;50.060;21.960;2022-10-30T11:00:19;15.40;86.90
68485;DHT22;55472;50.060;21.960;2022-10-30T11:06:10;15.40;85.90
68485;DHT22;55472;50.060;21.960;2022-10-30T11:08:39;15.40;86.10
68485;DHT22;55472;50.060;21.960;2022-10-30T11:11:06;15.40;86.20
68485;DHT22;55472;50.060;21.960;2022-10-30T11:13:41;15.40;86.50
68485;DHT22;55472;50.060;21.960;2022-10-30T11:16:33;15.40;86.40
68485;DHT22;55472;50.060;21.960;2022-10-30T11:19:07;15.50;86.30
68485;DHT22;55472;50.060;21.960;2022-10-30T11:21:37;15.60;85.90
68485;DHT22;55472;50.060;21.960;2022-10-30T11:24:32;15.60;86.10
68485;DHT22;55472;50.060;21.960;2022-10-30T11:30:02;15.70;86.40
68485;DHT22;55472;50.060;21.960;2022-10-30T11:32:33;15.70;85.80
68485;DHT22;55472;50.060;21.960;2022-10-30T11:37:32;15.70;86.10
68485;DHT22;55472;50.060;21.960;2022-10-30T11:40:06;15.70;84.80
68485;DHT22;55472;50.060;21.960;2022-10-30T11:45:32;15.70;86.90
68485;DHT22;55472;50.060;21.960;2022-10-30T11:47:59;15.80;86.50
68485;DHT22;55472;50.060;21.960;2022-10-30T11:50:28;16.00;86.40
68485;DHT22;55472;50.060;21.960;2022-10-30T11:53:00;16.10;85.80
68485;DHT22;55472;50.060;21.960;2022-10-30T11:55:34;16.30;85.40
68485;DHT22;55472;50.060;21.960;2022-10-30T11:58:05;16.40;85.20
68485;DHT22;55472;50.060;21.960;2022-10-30T12:00:35;16.50;84.70
68485;DHT22;55472;50.060;21.960;2022-10-30T12:03:02;16.60;83.60
68485;DHT22;55472;50.060;21.960;2022-10-30T12:05:41;16.70;83.50
68485;DHT22;55472;50.060;21.960;2022-10-30T12:10:41;16.90;82.70
68485;DHT22;55472;50.060;21.960;2022-10-30T12:13:18;17.00;81.60
68485;DHT22;55472;50.060;21.960;2022-10-30T12:15:47;17.20;81.00
68485;DHT22;55472;50.060;21.960;2022-10-30T12:18:26;17.30;81.10
68485;DHT22;55472;50.060;21.960;2022-10-30T12:20:55;17.40;79.10
68485;DHT22;55472;50.060;21.960;2022-10-30T12:23:23;17.40;79.00
68485;DHT22;55472;50.060;21.960;2022-10-30T12:25:52;17.40;79.20
68485;DHT22;55472;50.060;21.960;2022-10-30T12:28:22;17.30;79.50
68485;DHT22;55472;50.060;21.960;2022-10-30T12:30:53;17.30;80.20
68485;DHT22;55472;50.060;21.960;2022-10-30T12:36:23;17.40;80.00
68485;DHT22;55472;50.060;21.960;2022-10-30T12:39:02;17.40;79.30
68485;DHT22;55472;50.060;21.960;2022-10-30T12:41:39;17.50;79.80
68485;DHT22;55472;50.060;21.960;2022-10-30T12:44:15;17.50;79.50
68485;DHT22;55472;50.060;21.960;2022-10-30T12:46:50;17.40;79.40
68485;DHT22;55472;50.060;21.960;2022-10-30T12:49:28;17.30;79.40
68485;DHT22;55472;50.060;21.960;2022-10-30T12:57:46;17.10;81.00
68485;DHT22;55472;50.060;21.960;2022-10-30T13:00:24;17.10;81.20
68485;DHT22;55472;50.060;21.960;2022-10-30T13:02:59;17.10;82.20
68485;DHT22;55472;50.060;21.960;2022-10-30T13:05:54;17.10;82.50
68485;DHT22;55472;50.060;21.960;2022-10-30T13:08:36;17.10;82.40
68485;DHT22;55472;50.060;21.960;2022-10-30T13:13:54;17.30;82.30
68485;DHT22;55472;50.060;21.960;2022-10-30T13:16:27;17.40;81.10
68485;DHT22;55472;50.060;21.960;2022-10-30T13:18:56;17.40;81.30
68485;DHT22;55472;50.060;21.960;2022-10-30T13:21:48;17.50;81.50
68485;DHT22;55472;50.060;21.960;2022-10-30T13:27:35;17.80;80.20
68485;DHT22;55472;50.060;21.960;2022-10-30T13:30:21;17.90;79.40
68485;DHT22;55472;50.060;21.960;2022-10-30T13:38:52;18.10;78.00
68485;DHT22;55472;50.060;21.960;2022-10-30T13:41:59;18.20;78.10
68485;DHT22;55472;50.060;21.960;2022-10-30T13:51:28;18.50;77.10
68485;DHT22;55472;50.060;21.960;2022-10-30T13:54:29;18.50;76.80
68485;DHT22;55472;50.060;21.960;2022-10-30T13:57:44;18.50;76.30
68485;DHT22;55472;50.060;21.960;2022-10-30T14:06:29;18.30;76.50
68485;DHT22;55472;50.060;21.960;2022-10-30T14:11:39;18.10;76.60
68485;DHT22;55472;50.060;21.960;2022-10-30T14:14:29;18.00;76.90
68485;DHT22;55472;50.060;21.960;2022-10-30T14:17:19;17.80;77.10
68485;DHT22;55472;50.060;21.960;2022-10-30T14:22:30;17.60;78.40
68485;DHT22;55472;50.060;21.960;2022-10-30T14:24:57;17.50;79.40
68485;DHT22;55472;50.060;21.960;2022-10-30T14:27:32;17.50;78.80
68485;DHT22;55472;50.060;21.960;2022-10-30T14:29:59;17.40;79.80
68485;DHT22;55472;50.060;21.960;2022-10-30T14:39:53;17.10;81.00
68485;DHT22;55472;50.060;21.960;2022-10-30T14:45:18;17.00;81.10
68485;DHT22;55472;50.060;21.960;2022-10-30T14:48:11;16.90;81.10
68485;DHT22;55472;50.060;21.960;2022-10-30T14:54:10;16.60;82.50
68485;DHT22;55472;50.060;21.960;2022-10-30T14:56:46;16.50;83.00
68485;DHT22;55472;50.060;21.960;2022-10-30T15:01:53;16.20;84.20
68485;DHT22;55472;50.060;21.960;2022-10-30T15:10:18;15.80;86.00
68485;DHT22;55472;50.060;21.960;2022-10-30T15:15:34;15.70;86.30
68485;DHT22;55472;50.060;21.960;2022-10-30T15:18:09;15.70;86.50
68485;DHT22;55472;50.060;21.960;2022-10-30T15:20:39;15.60;86.70
68485;DHT22;55472;50.060;21.960;2022-10-30T15:23:18;15.60;87.00
68485;DHT22;55472;50.060;21.960;2022-10-30T15:25:53;15.50;87.30
68485;DHT22;55472;50.060;21.960;2022-10-30T15:28:24;15.40;87.50
68485;DHT22;55472;50.060;21.960;2022-10-30T15:31:20;15.40;87.60
68485;DHT22;55472;50.060;21.960;2022-10-30T15:33:48;15.40;87.50
68485;DHT22;55472;50.060;21.960;2022-10-30T15:41:40;15.20;88.20
68485;DHT22;55472;50.060;21.960;2022-10-30T15:44:10;15.10;88.70
68485;DHT22;55472;50.060;21.960;2022-10-30T15:46:37;15.10;88.90
68485;DHT22;55472;50.060;21.960;2022-10-30T15:49:04;15.10;88.90
68485;DHT22;55472;50.060;21.960;2022-10-30T15:51:30;15.00;88.80
68485;DHT22;55472;50.060;21.960;2022-10-30T15:54:00;15.00;88.70
68485;DHT22;55472;50.060;21.960;2022-10-30T15:56:43;15.00;88.80
68485;DHT22;55472;50.060;21.960;2022-10-30T15:59:18;14.90;88.60
68485;DHT22;55472;50.060;21.960;2022-10-30T16:01:53;14.90;88.70
68485;DHT22;55472;50.060;21.960;2022-10-30T16:04:25;14.80;88.60
68485;DHT22;55472;50.060;21.960;2022-10-30T16:06:57;14.80;89.40
68485;DHT22;55472;50.060;21.960;2022-10-30T16:09:26;14.70;89.60
68485;DHT22;55472;50.060;21.960;2022-10-30T16:11:56;14.70;89.90
68485;DHT22;55472;50.060;21.960;2022-10-30T16:14:25;14.70;89.50
68485;DHT22;55472;50.060;21.960;2022-10-30T16:16:52;14.60;89.60
68485;DHT22;55472;50.060;21.960;2022-10-30T16:19:29;14.60;90.00
68485;DHT22;55472;50.060;21.960;2022-10-30T16:21:57;14.60;89.70
68485;DHT22;55472;50.060;21.960;2022-10-30T16:24:30;14.50;89.80
68485;DHT22;55472;50.060;21.960;2022-10-30T16:29:29;14.50;90.00
68485;DHT22;55472;50.060;21.960;2022-10-30T16:31:55;14.50;90.10
68485;DHT22;55472;50.060;21.960;2022-10-30T16:34:24;14.40;89.90
68485;DHT22;55472;50.060;21.960;2022-10-30T16:36:56;14.40;90.20
68485;DHT22;55472;50.060;21.960;2022-10-30T16:39:24;14.40;90.10
68485;DHT22;55472;50.060;21.960;2022-10-30T16:41:50;14.30;90.10
68485;DHT22;55472;50.060;21.960;2022-10-30T16:44:30;14.30;90.10
68485;DHT22;55472;50.060;21.960;2022-10-30T16:47:21;14.30;90.30
68485;DHT22;55472;50.060;21.960;2022-10-30T16:49:54;14.20;90.00
68485;DHT22;55472;50.060;21.960;2022-10-30T16:52:26;14.10;90.10
68485;DHT22;55472;50.060;21.960;2022-10-30T16:55:18;14.00;90.20
68485;DHT22;55472;50.060;21.960;2022-10-30T16:57:51;14.00;90.50
68485;DHT22;55472;50.060;21.960;2022-10-30T17:00:24;13.90;90.40
68485;DHT22;55472;50.060;21.960;2022-10-30T17:02:52;13.90;90.60
68485;DHT22;55472;50.060;21.960;2022-10-30T17:05:30;13.90;90.80
68485;DHT22;55472;50.060;21.960;2022-10-30T17:08:00;13.90;90.90
68485;DHT22;55472;50.060;21.960;2022-10-30T17:16:23;13.90;91.20
68485;DHT22;55472;50.060;21.960;2022-10-30T17:18:50;13.90;90.90
68485;DHT22;55472;50.060;21.960;2022-10-30T17:21:28;13.80;90.60
68485;DHT22;55472;50.060;21.960;2022-10-30T17:24:01;13.80;90.30
68485;DHT22;55472;50.060;21.960;2022-10-30T17:26:27;13.80;90.40
68485;DHT22;55472;50.060;21.960;2022-10-30T17:28:54;13.80;90.20
68485;DHT22;55472;50.060;21.960;2022-10-30T17:31:25;13.80;89.50
68485;DHT22;55472;50.060;21.960;2022-10-30T17:34:11;13.80;89.30
68485;DHT22;55472;50.060;21.960;2022-10-30T17:36:45;13.70;89.10
68485;DHT22;55472;50.060;21.960;2022-10-30T17:39:12;13.70;89.10